createdAt,value
2018-02-21T00:01:05.535Z,35.97
2018-02-21T00:03:33.768Z,36.53
2018-02-21T00:06:01.228Z,34.73
2018-02-21T00:08:28.688Z,35.67
2018-02-21T00:10:56.138Z,34.93
2018-02-21T00:13:23.602Z,34.90
2018-02-21T00:15:51.061Z,35.23
2018-02-21T00:18:18.536Z,38.80
2018-02-21T00:20:46.085Z,37.13
2018-02-21T00:23:14.296Z,36.33
2018-02-21T00:25:41.728Z,37.90
2018-02-21T00:28:09.200Z,34.43
2018-02-21T00:30:36.629Z,36.27
2018-02-21T00:33:04.880Z,37.13
2018-02-21T00:35:32.328Z,34.97
2018-02-21T00:37:59.807Z,35.93
2018-02-21T00:40:27.263Z,35.87
2018-02-21T00:42:54.715Z,33.43
2018-02-21T00:45:22.173Z,34.63
2018-02-21T00:47:49.628Z,34.20
2018-02-21T00:50:17.085Z,38.73
2018-02-21T00:52:44.547Z,34.90
2018-02-21T00:55:11.993Z,37.17
2018-02-21T00:57:39.464Z,37.13
2018-02-21T01:00:06.912Z,34.90
2018-02-21T01:02:34.372Z,38.47
2018-02-21T01:05:02.600Z,34.77
2018-02-21T01:07:30.067Z,34.43
2018-02-21T01:09:57.533Z,35.67
2018-02-21T01:12:24.987Z,36.40
2018-02-21T01:14:52.431Z,36.17
2018-02-21T01:17:19.891Z,36.13
2018-02-21T01:19:47.353Z,34.37
2018-02-21T01:22:14.786Z,35.87
2018-02-21T01:24:43.002Z,35.90
2018-02-21T01:27:10.453Z,37.20
2018-02-21T01:29:37.922Z,36.20
2018-02-21T01:32:05.374Z,37.90
2018-02-21T01:34:32.827Z,35.13
2018-02-21T01:37:00.303Z,36.13
2018-02-21T01:39:27.771Z,34.07
2018-02-21T01:41:55.238Z,38.63
2018-02-21T01:44:22.696Z,37.13
2018-02-21T01:46:50.172Z,37.20
2018-02-21T01:49:17.627Z,36.80
2018-02-21T01:51:45.079Z,38.30
2018-02-21T01:54:12.548Z,36.13
2018-02-21T01:56:40.027Z,35.53
2018-02-21T01:59:07.479Z,38.00
2018-02-21T02:01:34.947Z,33.83
2018-02-21T02:04:02.415Z,35.50
2018-02-21T02:06:29.868Z,37.90
2018-02-21T02:08:57.320Z,37.23
2018-02-21T02:11:24.759Z,36.87
2018-02-21T02:13:53.268Z,32.70
2018-02-21T02:16:20.711Z,34.83
2018-02-21T02:18:48.947Z,34.13
2018-02-21T02:21:16.406Z,35.37
2018-02-21T02:23:43.884Z,36.80
2018-02-21T02:26:11.400Z,36.93
2018-02-21T02:28:38.838Z,35.13
2018-02-21T02:31:07.078Z,38.07
2018-02-21T02:33:34.543Z,38.57
2018-02-21T02:36:02.007Z,37.23
2018-02-21T02:41:34.430Z,48.20
2018-02-21T02:44:02.656Z,34.00
2018-02-21T02:46:30.114Z,34.47
2018-02-21T02:48:57.571Z,34.40
2018-02-21T02:51:25.036Z,36.50
2018-02-21T02:53:52.501Z,35.53
2018-02-21T02:56:19.961Z,34.97
2018-02-21T02:58:47.441Z,35.77
2018-02-21T03:01:14.904Z,36.07
2018-02-21T03:03:42.375Z,35.07
2018-02-21T03:06:09.836Z,37.13
2018-02-21T03:08:37.292Z,36.00
2018-02-21T03:11:05.546Z,37.97
2018-02-21T03:13:32.999Z,35.10
2018-02-21T03:16:00.462Z,33.60
2018-02-21T03:18:27.924Z,34.07
2018-02-21T03:20:55.395Z,35.27
2018-02-21T03:23:22.851Z,36.10
2018-02-21T03:25:50.328Z,33.83
2018-02-21T03:28:17.778Z,36.73
2018-02-21T03:30:45.255Z,35.97
2018-02-21T03:33:12.700Z,37.17
2018-02-21T03:35:40.155Z,36.97
2018-02-21T03:38:07.628Z,36.57
2018-02-21T03:40:35.067Z,35.00
2018-02-21T03:43:03.297Z,35.20
2018-02-21T03:45:30.759Z,36.50
2018-02-21T03:47:58.232Z,37.57
2018-02-21T03:50:25.684Z,37.20
2018-02-21T03:52:53.133Z,36.00
2018-02-21T03:55:20.593Z,37.20
2018-02-21T03:57:48.053Z,34.80
2018-02-21T04:00:15.539Z,35.53
2018-02-21T04:02:43.079Z,36.67
2018-02-21T04:05:10.508Z,35.00
2018-02-21T04:07:38.748Z,35.13
2018-02-21T04:10:06.200Z,36.10
2018-02-21T04:12:33.660Z,35.27
2018-02-21T04:15:01.109Z,36.93
2018-02-21T04:17:28.571Z,35.77
2018-02-21T04:19:56.032Z,36.07
2018-02-21T04:22:23.477Z,34.47
2018-02-21T04:24:50.930Z,35.37
2018-02-21T04:27:19.159Z,36.13
2018-02-21T04:29:47.382Z,38.17
2018-02-21T04:32:15.599Z,37.70
2018-02-21T04:34:43.060Z,37.20
2018-02-21T04:37:10.506Z,37.17
2018-02-21T04:39:38.954Z,35.30
2018-02-21T04:42:06.437Z,34.50
2018-02-21T04:44:33.888Z,35.87
2018-02-21T04:47:01.393Z,34.77
2018-02-21T04:49:28.874Z,35.40
2018-02-21T04:51:56.318Z,35.97
2018-02-21T04:54:29.528Z,37.43
2018-02-21T04:56:57.826Z,33.47
2018-02-21T04:59:33.969Z,35.30
2018-02-21T05:02:01.425Z,38.17
2018-02-21T05:04:28.894Z,39.63
2018-02-21T05:06:56.353Z,38.27
2018-02-21T05:09:23.829Z,36.37
2018-02-21T05:11:51.294Z,36.83
2018-02-21T05:14:18.768Z,37.53
2018-02-21T05:16:46.234Z,35.07
2018-02-21T05:19:14.865Z,35.43
2018-02-21T05:21:43.085Z,36.47
2018-02-21T05:24:10.552Z,37.20
2018-02-21T05:26:38.003Z,39.30
2018-02-21T05:29:05.463Z,37.67
2018-02-21T05:31:32.918Z,38.93
2018-02-21T05:34:00.482Z,36.97
2018-02-21T05:36:27.936Z,37.73
2018-02-21T05:38:55.447Z,36.93
2018-02-21T05:41:22.908Z,37.77
2018-02-21T05:43:50.367Z,36.37
2018-02-21T05:46:17.821Z,34.10
2018-02-21T05:48:45.284Z,36.83
2018-02-21T05:51:12.771Z,35.80
2018-02-21T05:53:40.210Z,35.87
2018-02-21T05:56:07.668Z,34.30
2018-02-21T05:58:35.140Z,36.30
2018-02-21T06:01:02.593Z,39.33
2018-02-21T06:03:30.040Z,36.57
2018-02-21T06:05:57.517Z,35.43
2018-02-21T06:08:24.991Z,37.63
2018-02-21T06:10:53.270Z,35.90
2018-02-21T06:13:20.830Z,37.67
2018-02-21T06:15:48.291Z,35.80
2018-02-21T06:18:15.763Z,36.00
2018-02-21T06:20:43.343Z,38.03
2018-02-21T06:23:10.816Z,34.80
2018-02-21T06:25:38.262Z,34.97
2018-02-21T06:28:05.737Z,37.37
2018-02-21T06:30:33.200Z,36.07
2018-02-21T06:33:00.659Z,36.73
2018-02-21T06:35:28.117Z,35.47
2018-02-21T06:37:55.585Z,36.23
2018-02-21T06:40:23.109Z,35.77
2018-02-21T06:42:50.552Z,36.77
2018-02-21T06:45:18.007Z,36.10
2018-02-21T06:47:46.228Z,37.60
2018-02-21T06:50:13.751Z,37.60
2018-02-21T06:52:42.024Z,36.83
2018-02-21T06:55:10.243Z,35.93
2018-02-21T06:57:37.704Z,35.60
2018-02-21T07:00:05.201Z,37.33
2018-02-21T07:02:35.583Z,38.03
2018-02-21T07:05:03.055Z,38.10
2018-02-21T07:07:30.534Z,37.00
2018-02-21T07:09:58.000Z,36.60
2018-02-21T07:12:25.470Z,33.63
2018-02-21T07:14:52.938Z,35.37
2018-02-21T07:17:20.394Z,37.07
2018-02-21T07:19:48.623Z,35.37
2018-02-21T07:22:16.967Z,39.20
2018-02-21T07:24:45.195Z,37.50
2018-02-21T07:27:12.673Z,39.10
2018-02-21T07:29:40.122Z,38.37
2018-02-21T07:32:07.606Z,37.03
2018-02-21T07:34:35.075Z,37.10
2018-02-21T07:37:02.534Z,39.23
2018-02-21T07:39:29.987Z,38.47
2018-02-21T07:41:57.702Z,36.97
2018-02-21T07:44:25.163Z,38.30
2018-02-21T07:46:52.641Z,35.90
2018-02-21T07:49:20.119Z,40.27
2018-02-21T07:51:48.372Z,48.63
2018-02-21T07:54:18.213Z,42.80
2018-02-21T07:56:45.664Z,40.57
2018-02-21T07:59:13.119Z,40.63
2018-02-21T08:01:40.586Z,39.13
2018-02-21T08:04:08.044Z,40.20
2018-02-21T08:06:35.517Z,40.53
2018-02-21T08:09:02.939Z,37.60
2018-02-21T08:11:30.486Z,39.90
2018-02-21T08:13:57.974Z,39.03
2018-02-21T08:16:25.444Z,43.03
2018-02-21T08:18:52.882Z,41.83
2018-02-21T08:21:20.338Z,41.63
2018-02-21T08:23:47.811Z,41.77
2018-02-21T08:26:15.260Z,41.77
2018-02-21T08:28:42.718Z,43.17
2018-02-21T08:31:10.167Z,38.97
2018-02-21T08:33:38.404Z,35.73
2018-02-21T08:36:05.878Z,43.30
2018-02-21T08:38:33.340Z,39.70
2018-02-21T08:41:00.792Z,42.70
2018-02-21T08:43:28.240Z,38.30
2018-02-21T08:45:55.712Z,38.73
2018-02-21T08:48:23.188Z,41.83
2018-02-21T08:50:50.683Z,42.27
2018-02-21T08:53:18.179Z,43.07
2018-02-21T08:55:45.632Z,40.23
2018-02-21T08:58:13.096Z,40.57
2018-02-21T09:00:40.541Z,43.50
2018-02-21T09:03:07.997Z,45.13
2018-02-21T09:05:35.455Z,43.43
2018-02-21T09:08:03.693Z,49.13
2018-02-21T09:10:31.213Z,46.23
2018-02-21T09:12:58.618Z,44.03
2018-02-21T09:15:26.080Z,47.77
2018-02-21T09:17:53.538Z,49.33
2018-02-21T09:20:20.978Z,46.00
2018-02-21T09:22:48.459Z,51.80
2018-02-21T09:25:15.894Z,49.73
2018-02-21T09:27:44.027Z,45.70
2018-02-21T09:30:11.484Z,43.63
2018-02-21T09:32:38.950Z,46.70
2018-02-21T09:35:06.426Z,49.27
2018-02-21T09:37:33.886Z,53.00
2018-02-21T09:40:02.123Z,47.60
2018-02-21T09:42:29.570Z,45.00
2018-02-21T09:44:57.043Z,45.70
2018-02-21T09:47:24.521Z,40.67
2018-02-21T09:49:51.978Z,45.57
2018-02-21T09:52:19.441Z,43.13
2018-02-21T09:54:46.883Z,48.63
2018-02-21T09:57:14.378Z,49.50
2018-02-21T09:59:41.828Z,47.23
2018-02-21T10:02:09.294Z,49.87
2018-02-21T10:04:36.766Z,45.77
2018-02-21T10:07:04.223Z,47.07
2018-02-21T10:09:31.683Z,42.27
2018-02-21T10:11:59.148Z,46.17
2018-02-21T10:14:27.391Z,46.73
2018-02-21T10:16:54.838Z,47.27
2018-02-21T10:19:23.067Z,40.40
2018-02-21T10:21:50.531Z,42.77
2018-02-21T10:24:18.006Z,41.73
2018-02-21T10:26:45.502Z,44.13
2018-02-21T10:29:12.881Z,40.80
2018-02-21T10:31:40.371Z,44.17
2018-02-21T10:34:07.818Z,46.30
2018-02-21T10:36:35.270Z,44.70
2018-02-21T10:39:02.743Z,42.20
2018-02-21T10:41:30.202Z,41.90
2018-02-21T10:43:57.634Z,41.63
2018-02-21T10:46:25.850Z,41.07
2018-02-21T10:48:53.312Z,39.77
2018-02-21T10:51:20.784Z,37.33
2018-02-21T10:53:49.067Z,39.03
2018-02-21T10:56:16.513Z,39.63
2018-02-21T10:58:43.998Z,39.97
2018-02-21T11:01:17.177Z,43.40
2018-02-21T11:03:44.636Z,43.17
2018-02-21T11:06:12.111Z,43.17
2018-02-21T11:08:39.589Z,43.27
2018-02-21T11:11:07.069Z,41.47
2018-02-21T11:13:35.213Z,40.77
2018-02-21T11:16:02.676Z,40.40
2018-02-21T11:18:30.134Z,40.60
2018-02-21T11:20:57.606Z,39.80
2018-02-21T11:23:25.414Z,39.77
2018-02-21T11:25:52.846Z,42.07
2018-02-21T11:28:20.288Z,39.73
2018-02-21T11:30:47.738Z,41.23
2018-02-21T11:33:15.193Z,38.70
2018-02-21T11:35:43.421Z,41.27
2018-02-21T11:38:10.862Z,40.97
2018-02-21T11:40:38.332Z,40.80
2018-02-21T11:43:05.786Z,40.27
2018-02-21T11:45:33.245Z,41.10
2018-02-21T11:48:00.712Z,39.27
2018-02-21T11:50:29.442Z,40.93
2018-02-21T11:52:56.863Z,46.43
2018-02-21T11:55:24.541Z,41.73
2018-02-21T11:57:52.013Z,38.63
2018-02-21T12:00:19.475Z,38.47
2018-02-21T12:02:46.937Z,38.83
2018-02-21T12:05:14.366Z,38.43
2018-02-21T12:07:41.809Z,38.67
2018-02-21T12:10:10.693Z,36.47
2018-02-21T12:12:38.162Z,36.13
2018-02-21T12:15:05.607Z,37.33
2018-02-21T12:17:33.064Z,36.57
2018-02-21T12:20:00.510Z,35.00
2018-02-21T12:22:27.972Z,35.77
2018-02-21T12:24:55.428Z,33.23
2018-02-21T12:27:22.897Z,33.80
2018-02-21T12:29:50.344Z,33.13
2018-02-21T12:32:19.796Z,33.63
2018-02-21T12:34:47.264Z,34.03
2018-02-21T12:37:14.726Z,34.63
2018-02-21T12:39:42.166Z,33.43
2018-02-21T12:42:09.616Z,33.80
2018-02-21T12:44:37.058Z,32.60
2018-02-21T12:47:04.602Z,34.03
2018-02-21T12:49:32.008Z,32.33
2018-02-21T12:51:59.475Z,31.67
2018-02-21T12:54:26.934Z,32.77
2018-02-21T12:56:54.400Z,32.70
2018-02-21T12:59:21.865Z,33.27
2018-02-21T13:01:49.303Z,33.13
2018-02-21T13:04:16.747Z,32.70
2018-02-21T13:06:44.200Z,31.33
2018-02-21T13:09:12.417Z,33.17
2018-02-21T13:11:39.865Z,31.60
2018-02-21T13:14:07.332Z,31.00
2018-02-21T13:16:34.785Z,31.17
2018-02-21T13:19:02.225Z,30.33
2018-02-21T13:21:30.438Z,30.40
2018-02-21T13:23:57.897Z,31.33
2018-02-21T13:26:25.367Z,30.27
2018-02-21T13:28:52.818Z,31.73
2018-02-21T13:31:20.271Z,29.57
2018-02-21T13:33:47.711Z,29.97
2018-02-21T13:36:15.942Z,31.23
2018-02-21T13:38:43.405Z,31.60
2018-02-21T13:41:10.863Z,29.97
2018-02-21T13:43:38.308Z,28.87
2018-02-21T13:46:05.815Z,28.40
2018-02-21T13:48:34.058Z,28.13
2018-02-21T13:51:01.534Z,27.60
2018-02-21T13:53:29.007Z,28.10
2018-02-21T13:55:56.481Z,28.00
2018-02-21T13:58:23.929Z,27.93
2018-02-21T14:00:51.390Z,28.93
2018-02-21T14:03:18.947Z,29.20
2018-02-21T14:05:46.398Z,29.80
2018-02-21T14:08:13.856Z,27.77
2018-02-21T14:10:41.314Z,30.07
2018-02-21T14:13:08.749Z,28.77
2018-02-21T14:15:36.194Z,28.93
2018-02-21T14:18:03.638Z,27.30
2018-02-21T14:20:31.097Z,28.17
2018-02-21T14:22:58.571Z,29.33
2018-02-21T14:25:26.043Z,29.00
2018-02-21T14:27:53.478Z,27.93
2018-02-21T14:30:20.954Z,27.70
2018-02-21T14:32:48.398Z,27.00
2018-02-21T14:35:15.876Z,26.57
2018-02-21T14:37:43.326Z,26.80
2018-02-21T14:40:10.788Z,27.90
2018-02-21T14:42:38.246Z,25.47
2018-02-21T14:45:05.689Z,27.07
2018-02-21T14:47:33.128Z,26.07
2018-02-21T14:50:00.604Z,27.40
2018-02-21T14:52:28.825Z,26.13
2018-02-21T14:54:56.272Z,28.20
2018-02-21T14:57:23.731Z,26.10
2018-02-21T14:59:51.222Z,26.77
2018-02-21T15:02:18.677Z,27.00
2018-02-21T15:04:46.125Z,27.13
2018-02-21T15:07:13.587Z,26.10
2018-02-21T15:09:41.064Z,26.27
2018-02-21T15:12:08.515Z,24.67
2018-02-21T15:14:35.980Z,26.87
2018-02-21T15:17:03.445Z,25.57
2018-02-21T15:19:31.646Z,28.07
2018-02-21T15:21:59.112Z,25.37
2018-02-21T15:24:26.571Z,28.00
2018-02-21T15:26:54.020Z,25.63
2018-02-21T15:29:21.465Z,26.43
2018-02-21T15:31:48.915Z,26.23
2018-02-21T15:34:17.123Z,26.97
2018-02-21T15:36:44.571Z,26.57
2018-02-21T15:39:12.015Z,27.30
2018-02-21T15:41:39.462Z,26.23
2018-02-21T15:44:07.679Z,27.07
2018-02-21T15:46:35.152Z,27.13
2018-02-21T15:49:02.596Z,26.00
2018-02-21T15:51:30.068Z,27.00
2018-02-21T15:53:57.508Z,26.63
2018-02-21T15:56:25.731Z,25.57
2018-02-21T15:58:53.196Z,25.33
2018-02-21T16:01:20.635Z,24.80
2018-02-21T16:03:48.099Z,24.47
2018-02-21T16:06:15.547Z,24.60
2018-02-21T16:08:43.004Z,25.83
2018-02-21T16:11:10.473Z,25.77
2018-02-21T16:13:37.928Z,25.03
2018-02-21T16:16:05.370Z,26.80
2018-02-21T16:18:33.578Z,25.90
2018-02-21T16:21:01.036Z,27.60
2018-02-21T16:23:29.274Z,27.17
2018-02-21T16:25:56.750Z,28.17
2018-02-21T16:28:24.186Z,27.23
2018-02-21T16:30:52.025Z,27.80
2018-02-21T16:33:19.450Z,26.33
2018-02-21T16:35:47.711Z,27.47
2018-02-21T16:38:15.178Z,27.10
2018-02-21T16:40:42.643Z,27.17
2018-02-21T16:43:10.104Z,28.97
2018-02-21T16:45:37.551Z,28.50
2018-02-21T16:48:05.019Z,28.27
2018-02-21T16:50:32.506Z,30.00
2018-02-21T16:52:59.978Z,28.83
2018-02-21T16:55:27.447Z,29.17
2018-02-21T16:57:55.948Z,29.17
2018-02-21T17:00:23.387Z,28.83
2018-02-21T17:02:53.954Z,28.50
2018-02-21T17:05:21.422Z,28.60
2018-02-21T17:07:48.885Z,29.90
2018-02-21T17:10:16.353Z,29.07
2018-02-21T17:12:43.787Z,26.83
2018-02-21T17:15:11.791Z,26.40
2018-02-21T17:17:39.262Z,28.73
2018-02-21T17:20:06.727Z,27.30
2018-02-21T17:22:34.174Z,28.17
2018-02-21T17:25:01.652Z,27.20
2018-02-21T17:27:29.119Z,26.13
2018-02-21T17:29:56.578Z,26.10
2018-02-21T17:32:24.076Z,26.43
2018-02-21T17:34:51.537Z,28.00
2018-02-21T17:37:19.003Z,26.73
2018-02-21T17:39:46.459Z,26.47
2018-02-21T17:42:13.923Z,26.77
2018-02-21T17:44:41.374Z,25.27
2018-02-21T17:47:08.830Z,25.10
2018-02-21T17:49:36.306Z,25.90
2018-02-21T17:52:03.768Z,25.50
2018-02-21T17:54:31.221Z,25.37
2018-02-21T17:56:58.679Z,24.30
2018-02-21T17:59:26.141Z,22.33
2018-02-21T18:01:54.393Z,24.77
2018-02-21T18:04:21.879Z,22.40
2018-02-21T18:06:49.337Z,23.27
2018-02-21T18:09:16.780Z,21.43
2018-02-21T18:11:44.236Z,22.57
2018-02-21T18:14:11.703Z,23.13
2018-02-21T18:16:39.161Z,23.07
2018-02-21T18:19:07.165Z,22.37
2018-02-21T18:21:40.373Z,22.20
2018-02-21T18:24:07.831Z,21.57
2018-02-21T18:26:35.302Z,21.73
2018-02-21T18:29:02.748Z,21.00
2018-02-21T18:31:30.228Z,19.70
2018-02-21T18:33:57.694Z,21.37
2018-02-21T18:36:25.171Z,20.40
2018-02-21T18:38:52.624Z,20.67
2018-02-21T18:41:20.100Z,19.47
2018-02-21T18:43:48.367Z,20.67
2018-02-21T18:46:15.837Z,19.13
2018-02-21T18:48:43.291Z,20.00
2018-02-21T18:51:10.769Z,21.20
2018-02-21T18:53:38.232Z,19.57
2018-02-21T18:56:05.703Z,20.13
2018-02-21T18:58:33.943Z,21.53
2018-02-21T19:01:01.421Z,21.77
2018-02-21T19:03:28.879Z,20.47
2018-02-21T19:05:56.352Z,21.77
2018-02-21T19:08:23.795Z,22.00
2018-02-21T19:10:51.273Z,21.53
2018-02-21T19:13:18.730Z,23.30
2018-02-21T19:15:46.190Z,22.27
2018-02-21T19:18:13.658Z,22.67
2018-02-21T19:20:41.128Z,24.80
2018-02-21T19:23:08.598Z,23.30
2018-02-21T19:25:36.056Z,24.00
2018-02-21T19:28:03.517Z,21.93
2018-02-21T19:30:31.006Z,22.73
2018-02-21T19:32:59.216Z,22.03
2018-02-21T19:35:26.674Z,22.63
2018-02-21T19:37:54.138Z,20.87
2018-02-21T19:40:21.612Z,19.93
2018-02-21T19:42:49.064Z,22.17
2018-02-21T19:45:16.530Z,21.90
2018-02-21T19:47:43.992Z,22.33
2018-02-21T19:50:11.449Z,21.17
2018-02-21T19:52:38.920Z,21.97
2018-02-21T19:55:06.396Z,22.90
2018-02-21T19:57:33.856Z,22.07
2018-02-21T20:00:02.128Z,21.93
2018-02-21T20:02:29.683Z,21.53
2018-02-21T20:04:57.138Z,22.20
2018-02-21T20:07:25.369Z,21.43
2018-02-21T20:09:52.820Z,22.37
2018-02-21T20:12:20.301Z,22.27
2018-02-21T20:14:47.745Z,23.97
2018-02-21T20:17:15.207Z,22.27
2018-02-21T20:19:42.670Z,25.00
2018-02-21T20:22:10.127Z,23.43
2018-02-21T20:24:37.589Z,22.90
2018-02-21T20:27:05.050Z,23.57
2018-02-21T20:29:32.497Z,24.87
2018-02-21T20:31:59.966Z,24.07
2018-02-21T20:34:27.411Z,23.27
2018-02-21T20:36:54.895Z,23.83
2018-02-21T20:39:22.351Z,24.47
2018-02-21T20:41:49.830Z,24.80
2018-02-21T20:44:17.304Z,23.33
2018-02-21T20:46:44.739Z,22.80
2018-02-21T20:49:12.194Z,24.73
2018-02-21T20:51:39.653Z,24.97
2018-02-21T20:54:07.129Z,24.13
2018-02-21T20:56:34.566Z,24.80
2018-02-21T20:59:02.040Z,24.17
2018-02-21T21:01:29.506Z,23.53
2018-02-21T21:03:56.974Z,24.80
2018-02-21T21:06:24.435Z,26.53
2018-02-21T21:08:51.926Z,25.70
2018-02-21T21:11:19.377Z,24.47
2018-02-21T21:13:46.858Z,24.47
2018-02-21T21:16:14.328Z,23.47
2018-02-21T21:18:41.790Z,24.53
2018-02-21T21:21:09.258Z,24.07
2018-02-21T21:23:36.738Z,24.03
2018-02-21T21:26:04.978Z,22.53
2018-02-21T21:28:32.520Z,23.00
2018-02-21T21:31:00.018Z,23.40
2018-02-21T21:33:27.468Z,22.00
2018-02-21T21:35:54.934Z,26.03
2018-02-21T21:38:22.379Z,23.50
2018-02-21T21:40:49.849Z,22.10
2018-02-21T21:43:17.302Z,22.53
2018-02-21T21:45:44.759Z,22.77
2018-02-21T21:48:12.206Z,23.13
2018-02-21T21:50:39.684Z,22.63
2018-02-21T21:56:00.523Z,22.73
2018-02-21T21:58:27.992Z,22.37
2018-02-21T22:00:55.452Z,25.07
2018-02-21T22:03:23.670Z,23.07
2018-02-21T22:05:51.908Z,22.80
2018-02-21T22:08:19.347Z,23.87
2018-02-21T22:10:46.790Z,23.63
2018-02-21T22:13:14.238Z,23.17
2018-02-21T22:15:42.519Z,23.60
2018-02-21T22:18:09.910Z,24.03
2018-02-21T22:20:37.375Z,25.33
2018-02-21T22:23:04.851Z,24.70
2018-02-21T22:25:32.307Z,24.93
2018-02-21T22:27:59.788Z,24.30
2018-02-21T22:30:27.259Z,24.83
2018-02-21T22:32:54.709Z,24.23
2018-02-21T22:35:22.161Z,25.10
2018-02-21T22:37:49.621Z,24.47
2018-02-21T22:40:17.079Z,25.23
2018-02-21T22:42:44.545Z,24.00
2018-02-21T22:45:11.991Z,24.67
2018-02-21T22:47:39.454Z,24.80
2018-02-21T22:50:06.894Z,25.23
2018-02-21T22:52:35.110Z,25.47
2018-02-21T22:55:02.578Z,25.03
2018-02-21T22:57:30.016Z,24.80
2018-02-21T22:59:58.233Z,24.13
2018-02-21T23:02:25.718Z,26.40
2018-02-21T23:04:53.167Z,25.57
2018-02-21T23:07:20.640Z,26.87
2018-02-21T23:09:48.109Z,27.30
2018-02-21T23:12:15.548Z,29.43
2018-02-21T23:14:42.998Z,30.50
2018-02-21T23:17:10.475Z,28.77
2018-02-21T23:19:37.970Z,26.90
2018-02-21T23:22:05.427Z,28.77
2018-02-21T23:24:32.866Z,28.17
2018-02-21T23:27:00.320Z,28.37
2018-02-21T23:29:27.770Z,28.60
2018-02-21T23:31:55.630Z,27.07
2018-02-21T23:34:23.082Z,25.90
2018-02-21T23:36:51.402Z,27.50
2018-02-21T23:39:18.854Z,29.20
2018-02-21T23:41:46.295Z,28.73
2018-02-21T23:44:13.756Z,28.40
2018-02-21T23:46:41.981Z,29.57
2018-02-21T23:49:09.450Z,29.83
2018-02-21T23:51:36.911Z,29.63
2018-02-21T23:54:04.388Z,29.57
2018-02-21T23:56:31.875Z,28.87
2018-02-21T23:59:00.105Z,28.23
